Time,TemperatureF,DewpointF,PressureIn,WindDirection,WindDirectionDegrees,WindSpeedMPH,WindSpeedGustMPH,Humidity,HourlyPrecipIn,Conditions,Clouds,dailyrainin,SoftwareType,DateUTC
2013-04-19 00:01:00,21.0,12.0,-100.00,SE,144,1.0,3.0,68,-99.99,,,-99.99,,2013-04-19 06:01:00,
2013-04-19 00:11:00,21.0,12.0,-100.00,SE,144,1.0,3.0,68,-99.99,,,-99.99,,2013-04-19 06:11:00,
2013-04-19 00:22:00,20.0,11.0,-100.00,ESE,113,1.0,2.0,69,-99.99,,,-99.99,,2013-04-19 06:22:00,
2013-04-19 00:32:00,20.0,11.0,-100.00,ESE,113,1.0,2.0,69,-99.99,,,-99.99,,2013-04-19 06:32:00,
2013-04-19 00:42:00,20.0,11.0,-100.00,ESE,113,1.0,2.0,69,-99.99,,,-99.99,,2013-04-19 06:42:00,
2013-04-19 01:52:00,20.0,13.0,-100.00,South,177,0.0,2.0,73,-99.99,,,-99.99,,2013-04-19 07:52:00,
2013-04-19 02:02:00,20.0,12.0,-100.00,SSE,163,1.0,2.0,72,-99.99,,,-99.99,,2013-04-19 08:02:00,
2013-04-19 02:12:00,20.0,12.0,-100.00,SSE,163,1.0,2.0,72,-99.99,,,-99.99,,2013-04-19 08:12:00,
2013-04-19 02:21:00,20.0,13.0,-100.00,SSE,147,0.0,1.0,73,-99.99,,,-99.99,,2013-04-19 08:21:00,
2013-04-19 02:32:00,20.0,12.0,-100.00,South,172,1.0,2.0,71,-99.99,,,-99.99,,2013-04-19 08:32:00,
2013-04-19 02:42:00,20.0,12.0,-100.00,South,172,1.0,2.0,71,-99.99,,,-99.99,,2013-04-19 08:42:00,
2013-04-19 02:52:00,20.0,13.0,-100.00,SSE,157,0.0,1.0,73,-99.99,,,-99.99,,2013-04-19 08:52:00,
2013-04-19 03:01:00,20.0,13.0,-100.00,SSE,161,1.0,2.0,74,-99.99,,,-99.99,,2013-04-19 09:01:00,
2013-04-19 03:11:00,20.0,13.0,-100.00,SSE,161,1.0,2.0,74,-99.99,,,-99.99,,2013-04-19 09:11:00,
2013-04-19 03:21:00,20.0,13.0,-100.00,SSW,198,1.0,2.0,74,-99.99,,,-99.99,,2013-04-19 09:21:00,
2013-04-19 03:32:00,19.0,12.0,-100.00,SW,234,1.0,2.0,75,-99.99,,,-99.99,,2013-04-19 09:32:00,
2013-04-19 03:42:00,19.0,12.0,-100.00,SW,234,1.0,2.0,75,-99.99,,,-99.99,,2013-04-19 09:42:00,
2013-04-19 03:52:00,20.0,13.0,-100.00,SW,230,1.0,2.0,74,-99.99,,,-99.99,,2013-04-19 09:52:00,
2013-04-19 04:02:00,22.0,14.0,-100.00,SSW,196,1.0,2.0,70,-99.99,,,-99.99,,2013-04-19 10:02:00,
2013-04-19 04:13:00,22.0,14.0,-100.00,SSW,196,1.0,2.0,70,-99.99,,,-99.99,,2013-04-19 10:13:00,
2013-04-19 04:23:00,21.0,13.0,-100.00,SW,216,1.0,3.0,70,-99.99,,,-99.99,,2013-04-19 10:23:00,
2013-04-19 04:33:00,22.0,13.0,-100.00,SSE,160,2.0,4.0,67,-99.99,,,-99.99,,2013-04-19 10:33:00,
2013-04-19 04:42:00,22.0,13.0,-100.00,SSE,160,2.0,4.0,67,-99.99,,,-99.99,,2013-04-19 10:42:00,
2013-04-19 04:52:00,23.0,13.0,-100.00,SSE,149,1.0,2.0,66,-99.99,,,-99.99,,2013-04-19 10:52:00,
2013-04-19 05:02:00,23.0,14.0,-100.00,SSW,194,2.0,3.0,69,-99.99,,,-99.99,,2013-04-19 11:02:00,
2013-04-19 05:11:00,23.0,14.0,-100.00,SSW,194,2.0,3.0,69,-99.99,,,-99.99,,2013-04-19 11:11:00,
2013-04-19 05:22:00,24.0,14.0,-100.00,South,190,2.0,2.0,66,-99.99,,,-99.99,,2013-04-19 11:22:00,
2013-04-19 05:32:00,23.0,15.0,-100.00,SSE,160,1.0,2.0,71,-99.99,,,-99.99,,2013-04-19 11:32:00,
2013-04-19 05:42:00,23.0,15.0,-100.00,SSE,160,1.0,2.0,71,-99.99,,,-99.99,,2013-04-19 11:42:00,
2013-04-19 05:52:00,22.0,15.0,-100.00,SSW,199,1.0,2.0,73,-99.99,,,-99.99,,2013-04-19 11:52:00,
2013-04-19 06:02:00,21.0,15.0,-100.00,South,171,1.0,2.0,77,-99.99,,,-99.99,,2013-04-19 12:02:00,
2013-04-19 06:12:00,21.0,15.0,-100.00,South,171,1.0,2.0,77,-99.99,,,-99.99,,2013-04-19 12:12:00,
2013-04-19 06:22:00,21.0,15.0,-100.00,South,179,0.0,1.0,78,-99.99,,,-99.99,,2013-04-19 12:22:00,
2013-04-19 06:32:00,22.0,16.0,-100.00,SW,233,1.0,3.0,76,-99.99,,,-99.99,,2013-04-19 12:32:00,
2013-04-19 06:42:00,22.0,16.0,-100.00,SW,233,1.0,3.0,76,-99.99,,,-99.99,,2013-04-19 12:42:00,
2013-04-19 06:52:00,22.0,15.0,-100.00,SSW,205,1.0,2.0,74,-99.99,,,-99.99,,2013-04-19 12:52:00,
2013-04-19 07:01:00,23.0,14.0,-100.00,South,185,2.0,4.0,69,-99.99,,,-99.99,,2013-04-19 13:01:00,
2013-04-19 07:11:00,23.0,14.0,-100.00,South,185,2.0,4.0,69,-99.99,,,-99.99,,2013-04-19 13:11:00,
2013-04-19 07:21:00,26.0,16.0,-100.00,SSW,202,2.0,7.0,64,-99.99,,,-99.99,,2013-04-19 13:21:00,
2013-04-19 07:32:00,24.0,15.0,-100.00,SSW,211,2.0,5.0,68,-99.99,,,-99.99,,2013-04-19 13:32:00,
2013-04-19 07:42:00,24.0,15.0,-100.00,SSW,211,2.0,5.0,68,-99.99,,,-99.99,,2013-04-19 13:42:00,
2013-04-19 07:52:00,24.0,16.0,-100.00,SSW,200,1.0,3.0,70,-99.99,,,-99.99,,2013-04-19 13:52:00,
2013-04-19 08:01:00,26.0,16.0,-100.00,SSE,155,1.0,6.0,66,-99.99,,,-99.99,,2013-04-19 14:01:00,
2013-04-19 08:11:00,26.0,16.0,-100.00,SSE,155,1.0,6.0,66,-99.99,,,-99.99,,2013-04-19 14:11:00,
2013-04-19 08:21:00,26.0,16.0,-100.00,SSE,167,1.0,3.0,66,-99.99,,,-99.99,,2013-04-19 14:21:00,
2013-04-19 08:32:00,27.0,15.0,-100.00,SSW,207,2.0,4.0,59,-99.99,,,-99.99,,2013-04-19 14:32:00,
2013-04-19 08:42:00,27.0,15.0,-100.00,SSW,207,2.0,4.0,59,-99.99,,,-99.99,,2013-04-19 14:42:00,
2013-04-19 08:52:00,27.0,16.0,-100.00,SSW,210,1.0,2.0,62,-99.99,,,-99.99,,2013-04-19 14:52:00,
2013-04-19 09:01:00,28.0,16.0,-100.00,SSW,207,1.0,3.0,60,-99.99,,,-99.99,,2013-04-19 15:01:00,
2013-04-19 09:11:00,28.0,16.0,-100.00,SSW,207,1.0,3.0,60,-99.99,,,-99.99,,2013-04-19 15:11:00,
2013-04-19 09:21:00,29.0,17.0,-100.00,SSE,159,1.0,4.0,61,-99.99,,,-99.99,,2013-04-19 15:21:00,
2013-04-19 09:33:00,31.0,18.0,-100.00,East,79,1.0,2.0,58,-99.99,,,-99.99,,2013-04-19 15:33:00,
2013-04-19 09:43:00,31.0,18.0,-100.00,East,79,1.0,2.0,58,-99.99,,,-99.99,,2013-04-19 15:43:00,
2013-04-19 09:52:00,32.0,20.0,-100.00,South,187,3.0,8.0,61,-99.99,,,-99.99,,2013-04-19 15:52:00,
2013-04-19 10:03:00,32.0,22.0,-100.00,SSE,155,2.0,5.0,65,-99.99,,,-99.99,,2013-04-19 16:03:00,
2013-04-19 10:12:00,32.0,22.0,-100.00,SSE,155,2.0,5.0,65,-99.99,,,-99.99,,2013-04-19 16:12:00,
2013-04-19 10:23:00,32.0,23.0,-100.00,NE,56,3.0,5.0,68,-99.99,,,-99.99,,2013-04-19 16:23:00,
2013-04-19 10:32:00,32.0,23.0,-100.00,North,357,3.0,9.0,68,-99.99,,,-99.99,,2013-04-19 16:32:00,
2013-04-19 10:42:00,32.0,23.0,-100.00,North,357,3.0,9.0,68,-99.99,,,-99.99,,2013-04-19 16:42:00,
2013-04-19 10:52:00,32.0,23.0,-100.00,North,9,2.0,6.0,69,-99.99,,,-99.99,,2013-04-19 16:52:00,
2013-04-19 11:02:00,33.0,24.0,-100.00,North,10,2.0,6.0,69,-99.99,,,-99.99,,2013-04-19 17:02:00,
2013-04-19 11:12:00,33.0,24.0,-100.00,North,10,2.0,6.0,69,-99.99,,,-99.99,,2013-04-19 17:12:00,
2013-04-19 11:21:00,33.0,23.0,-100.00,SSW,200,2.0,7.0,67,-99.99,,,-99.99,,2013-04-19 17:21:00,
2013-04-19 11:32:00,33.0,24.0,-100.00,North,353,2.0,7.0,68,-99.99,,,-99.99,,2013-04-19 17:32:00,
2013-04-19 11:42:00,33.0,24.0,-100.00,North,353,2.0,7.0,68,-99.99,,,-99.99,,2013-04-19 17:42:00,
2013-04-19 11:52:00,34.0,25.0,-100.00,NNE,31,3.0,7.0,68,-99.99,,,-99.99,,2013-04-19 17:52:00,
2013-04-19 12:01:00,33.0,24.0,-100.00,NNW,348,3.0,12.0,69,-99.99,,,-99.99,,2013-04-19 18:01:00,
2013-04-19 12:13:00,33.0,24.0,-100.00,NNW,348,3.0,12.0,69,-99.99,,,-99.99,,2013-04-19 18:13:00,
2013-04-19 12:22:00,34.0,25.0,-100.00,South,178,2.0,3.0,68,-99.99,,,-99.99,,2013-04-19 18:22:00,
2013-04-19 12:33:00,34.0,24.0,-100.00,NW,309,5.0,9.0,67,-99.99,,,-99.99,,2013-04-19 18:33:00,
2013-04-19 12:42:00,34.0,24.0,-100.00,NW,309,5.0,9.0,67,-99.99,,,-99.99,,2013-04-19 18:42:00,
2013-04-19 12:52:00,36.0,25.0,-100.00,North,358,2.0,8.0,65,-99.99,,,-99.99,,2013-04-19 18:52:00,
2013-04-19 13:01:00,35.0,26.0,-100.00,North,349,3.0,8.0,70,-99.99,,,-99.99,,2013-04-19 19:01:00,
2013-04-19 13:11:00,35.0,26.0,-100.00,North,349,3.0,8.0,70,-99.99,,,-99.99,,2013-04-19 19:11:00,
2013-04-19 13:21:00,37.0,25.0,-100.00,East,88,2.0,4.0,61,-99.99,,,-99.99,,2013-04-19 19:21:00,
2013-04-19 13:32:00,34.0,25.0,-100.00,NW,317,4.0,7.0,68,-99.99,,,-99.99,,2013-04-19 19:32:00,
2013-04-19 13:41:00,34.0,25.0,-100.00,NW,317,4.0,7.0,68,-99.99,,,-99.99,,2013-04-19 19:41:00,
2013-04-19 13:52:00,35.0,27.0,-100.00,NNW,327,5.0,7.0,71,-99.99,,,-99.99,,2013-04-19 19:52:00,
2013-04-19 14:01:00,35.0,26.0,-100.00,NNW,327,4.0,7.0,69,-99.99,,,-99.99,,2013-04-19 20:01:00,
2013-04-19 14:11:00,35.0,26.0,-100.00,NNW,327,4.0,7.0,69,-99.99,,,-99.99,,2013-04-19 20:11:00,
2013-04-19 14:22:00,36.0,27.0,-100.00,NNE,19,4.0,8.0,69,-99.99,,,-99.99,,2013-04-19 20:22:00,
2013-04-19 14:32:00,37.0,27.0,-100.00,SW,224,2.0,4.0,66,-99.99,,,-99.99,,2013-04-19 20:32:00,
2013-04-19 14:41:00,37.0,27.0,-100.00,SW,224,2.0,4.0,66,-99.99,,,-99.99,,2013-04-19 20:41:00,
2013-04-19 14:51:00,37.0,27.0,-100.00,NNW,329,3.0,7.0,66,-99.99,,,-99.99,,2013-04-19 20:51:00,
2013-04-19 15:01:00,36.0,26.0,-100.00,NW,313,2.0,4.0,66,-99.99,,,-99.99,,2013-04-19 21:01:00,
2013-04-19 15:11:00,36.0,26.0,-100.00,NW,313,2.0,4.0,66,-99.99,,,-99.99,,2013-04-19 21:11:00,
2013-04-19 15:21:00,38.0,25.0,-100.00,NNW,348,3.0,5.0,60,-99.99,,,-99.99,,2013-04-19 21:21:00,
2013-04-19 15:32:00,38.0,25.0,-100.00,NNW,348,3.0,5.0,60,-99.99,,,-99.99,,2013-04-19 21:32:00,
2013-04-19 15:42:00,38.0,25.0,-100.00,NNW,348,3.0,5.0,60,-99.99,,,-99.99,,2013-04-19 21:42:00,
2013-04-19 15:52:00,38.0,27.0,-100.00,NW,312,2.0,6.0,63,-99.99,,,-99.99,,2013-04-19 21:52:00,
2013-04-19 16:02:00,38.0,27.0,-100.00,NW,313,2.0,9.0,65,-99.99,,,-99.99,,2013-04-19 22:02:00,
2013-04-19 16:12:00,38.0,27.0,-100.00,NW,313,2.0,9.0,65,-99.99,,,-99.99,,2013-04-19 22:12:00,
2013-04-19 16:22:00,37.0,28.0,-100.00,WSW,237,2.0,4.0,71,-99.99,,,-99.99,,2013-04-19 22:22:00,
2013-04-19 16:33:00,38.0,28.0,-100.00,North,10,3.0,8.0,67,-99.99,,,-99.99,,2013-04-19 22:33:00,
2013-04-19 16:42:00,38.0,28.0,-100.00,North,10,3.0,8.0,67,-99.99,,,-99.99,,2013-04-19 22:42:00,
2013-04-19 16:52:00,37.0,28.0,-100.00,NNW,345,5.0,10.0,71,-99.99,,,-99.99,,2013-04-19 22:52:00,
2013-04-19 17:02:00,37.0,28.0,-100.00,North,358,3.0,9.0,70,-99.99,,,-99.99,,2013-04-19 23:02:00,
2013-04-19 17:11:00,37.0,28.0,-100.00,North,358,3.0,9.0,70,-99.99,,,-99.99,,2013-04-19 23:11:00,
2013-04-19 17:22:00,38.0,29.0,-100.00,NW,320,2.0,4.0,69,-99.99,,,-99.99,,2013-04-19 23:22:00,
2013-04-19 17:32:00,38.0,28.0,-100.00,SW,233,2.0,6.0,66,-99.99,,,-99.99,,2013-04-19 23:32:00,
2013-04-19 17:42:00,38.0,28.0,-100.00,SW,233,2.0,6.0,66,-99.99,,,-99.99,,2013-04-19 23:42:00,
2013-04-19 17:52:00,37.0,29.0,-100.00,North,353,3.0,8.0,72,-99.99,,,-99.99,,2013-04-19 23:52:00,
2013-04-19 18:01:00,37.0,29.0,-100.00,East,98,2.0,4.0,72,-99.99,,,-99.99,,2013-04-20 00:01:00,
2013-04-19 18:12:00,37.0,29.0,-100.00,East,98,2.0,4.0,72,-99.99,,,-99.99,,2013-04-20 00:12:00,
2013-04-19 18:21:00,35.0,29.0,-100.00,South,184,2.0,5.0,77,-99.99,,,-99.99,,2013-04-20 00:21:00,
2013-04-19 18:31:00,35.0,29.0,-100.00,South,184,2.0,5.0,77,-99.99,,,-99.99,,2013-04-20 00:31:00,
2013-04-19 18:41:00,35.0,29.0,-100.00,South,184,2.0,5.0,77,-99.99,,,-99.99,,2013-04-20 00:41:00,
2013-04-19 18:52:00,36.0,29.0,-100.00,SSW,201,1.0,2.0,76,-99.99,,,-99.99,,2013-04-20 00:52:00,
2013-04-19 19:01:00,35.0,29.0,-100.00,East,90,0.0,1.0,78,-99.99,,,-99.99,,2013-04-20 01:01:00,
2013-04-19 19:11:00,35.0,29.0,-100.00,East,90,0.0,1.0,78,-99.99,,,-99.99,,2013-04-20 01:11:00,
2013-04-19 19:21:00,35.0,29.0,-100.00,SSE,158,1.0,3.0,79,-99.99,,,-99.99,,2013-04-20 01:21:00,
2013-04-19 19:32:00,34.0,29.0,-100.00,WSW,248,1.0,2.0,83,-99.99,,,-99.99,,2013-04-20 01:32:00,
2013-04-19 19:42:00,34.0,29.0,-100.00,WSW,248,1.0,2.0,83,-99.99,,,-99.99,,2013-04-20 01:42:00,
2013-04-19 19:52:00,34.0,30.0,-100.00,SW,216,0.0,1.0,85,-99.99,,,-99.99,,2013-04-20 01:52:00,
2013-04-19 20:01:00,34.0,30.0,-100.00,SW,225,1.0,4.0,85,-99.99,,,-99.99,,2013-04-20 02:01:00,
2013-04-19 20:11:00,34.0,30.0,-100.00,SW,225,1.0,4.0,85,-99.99,,,-99.99,,2013-04-20 02:11:00,
2013-04-19 20:21:00,33.0,31.0,-100.00,SSW,206,0.0,1.0,92,-99.99,,,-99.99,,2013-04-20 02:21:00,
2013-04-19 20:32:00,32.0,30.0,-100.00,SSW,202,1.0,4.0,94,-99.99,,,-99.99,,2013-04-20 02:32:00,
2013-04-19 20:42:00,32.0,30.0,-100.00,SSW,202,1.0,4.0,94,-99.99,,,-99.99,,2013-04-20 02:42:00,
2013-04-19 20:52:00,31.0,30.0,-100.00,SSE,157,1.0,3.0,96,-99.99,,,-99.99,,2013-04-20 02:52:00,
2013-04-19 21:01:00,31.0,30.0,-100.00,SW,218,1.0,2.0,97,-99.99,,,-99.99,,2013-04-20 03:01:00,
2013-04-19 21:11:00,31.0,30.0,-100.00,SW,218,1.0,2.0,97,-99.99,,,-99.99,,2013-04-20 03:11:00,
2013-04-19 21:21:00,31.0,31.0,-100.00,ESE,118,0.0,2.0,98,-99.99,,,-99.99,,2013-04-20 03:21:00,
2013-04-19 21:33:00,31.0,31.0,-100.00,SW,222,1.0,2.0,98,-99.99,,,-99.99,,2013-04-20 03:33:00,
2013-04-19 21:43:00,31.0,31.0,-100.00,SW,222,1.0,2.0,98,-99.99,,,-99.99,,2013-04-20 03:43:00,
2013-04-19 21:52:00,31.0,31.0,-100.00,SW,216,0.0,1.0,99,-99.99,,,-99.99,,2013-04-20 03:52:00,
2013-04-19 22:03:00,31.0,31.0,-100.00,SW,232,1.0,3.0,100,-99.99,,,-99.99,,2013-04-20 04:03:00,
2013-04-19 22:12:00,31.0,31.0,-100.00,SW,232,1.0,3.0,100,-99.99,,,-99.99,,2013-04-20 04:12:00,
2013-04-19 22:23:00,31.0,31.0,-100.00,East,95,0.0,2.0,100,-99.99,,,-99.99,,2013-04-20 04:23:00,
2013-04-19 22:32:00,31.0,31.0,-100.00,SSW,203,1.0,2.0,100,-99.99,,,-99.99,,2013-04-20 04:32:00,
2013-04-19 22:42:00,31.0,31.0,-100.00,SSW,203,1.0,2.0,100,-99.99,,,-99.99,,2013-04-20 04:42:00,
2013-04-19 22:52:00,31.0,31.0,-100.00,WNW,292,1.0,2.0,100,-99.99,,,-99.99,,2013-04-20 04:52:00,
2013-04-19 23:02:00,31.0,31.0,-100.00,NW,312,1.0,2.0,100,-99.99,,,-99.99,,2013-04-20 05:02:00,
2013-04-19 23:12:00,31.0,31.0,-100.00,NW,312,1.0,2.0,100,-99.99,,,-99.99,,2013-04-20 05:12:00,
2013-04-19 23:21:00,31.0,31.0,-100.00,WSW,243,1.0,3.0,100,-99.99,,,-99.99,,2013-04-20 05:21:00,
2013-04-19 23:32:00,31.0,31.0,-100.00,SSW,205,0.0,1.0,100,-99.99,,,-99.99,,2013-04-20 05:32:00,
2013-04-19 23:42:00,31.0,31.0,-100.00,SSW,205,0.0,1.0,100,-99.99,,,-99.99,,2013-04-20 05:42:00,
2013-04-19 23:51:00,31.0,31.0,-100.00,SW,224,1.0,1.0,100,-99.99,,,-99.99,,2013-04-20 05:51:00,